PWSweather.com
Personal Weather Stations
Station Observations
SPARKSRC
St. Petersburg, FL 33716

St. Petersburg, FL 33716

Lat: 27.876101, Lon: -82.657194

Elevation: 13

Station Type: Zephyr PWS-1000TD

High Low Average
Temperature 85.8°F29.9°F 64.8°F18.2°F 72.5°F22.5°F
Dew Point 67.8°F19.9°F 62.2°F16.8°F 64.7°F18.2°F
Winds 13.0 mph N20.9 mph N 1.6 mph 2.6 mph 6.8 mph 10.9 mph
Wind Gusts 20.6 mph33.2 mph 7.6 mph12.2 mph 13.0 mph20.9 mph
Humidity 94% 51% 78%
Pressure 29.96 in1014.60 in 29.84 in1010.50 in -
Precipitation 0.00 in0.00 in - -
Hour Temp Dew Point Humidity Winds Wind Gusts Pressure Precip Precip Rate Daily Precip Total
12:00 AM 69.4°F20.8°C 63.4°F17.4°C 81% 6.9 mph NE11.1 kmh NE 11.4 mph18.3 kmh 29.95 in1014.2 mb 0.00 in0.0 mm 0.00 in/hr0.0 mm/hr 0.00 in0.0 mm
12:05 AM 69.1°F20.6°C 63.4°F17.4°C 82% 9.2 mph NE14.8 kmh NE 11.4 mph18.3 kmh 29.95 in1014.2 mb 0.00 in0.0 mm 0.00 in/hr0.0 mm/hr 0.00 in0.0 mm
12:10 AM 69.1°F20.6°C 63.4°F17.4°C 82% 5.4 mph NE8.7 kmh NE 11.4 mph18.3 kmh 29.95 in1014.2 mb 0.00 in0.0 mm 0.00 in/hr0.0 mm/hr 0.00 in0.0 mm
12:15 AM 68.9°F20.5°C 63.6°F17.6°C 83% 7.6 mph NE12.2 kmh NE 12.1 mph19.5 kmh 29.95 in1014.2 mb 0.00 in0.0 mm 0.00 in/hr0.0 mm/hr 0.00 in0.0 mm
12:20 AM 68.9°F20.5°C 63.6°F17.6°C 83% 6.9 mph NE11.1 kmh NE 12.1 mph19.5 kmh 29.95 in1014.2 mb 0.00 in0.0 mm 0.00 in/hr0.0 mm/hr 0.00 in0.0 mm
12:25 AM 68.7°F20.4°C 63.7°F17.6°C 84% 6.9 mph NE11.1 kmh NE 13.0 mph20.9 kmh 29.94 in1013.9 mb 0.00 in0.0 mm 0.00 in/hr0.0 mm/hr 0.00 in0.0 mm
12:30 AM 68.5°F20.3°C 63.5°F17.5°C 84% 4.5 mph NE7.2 kmh NE 13.6 mph21.9 kmh 29.95 in1014.2 mb 0.00 in0.0 mm 0.00 in/hr0.0 mm/hr 0.00 in0.0 mm
12:35 AM 68.4°F20.2°C 63.7°F17.6°C 85% 3.8 mph NE6.1 kmh NE 13.6 mph21.9 kmh 29.93 in1013.5 mb 0.00 in0.0 mm 0.00 in/hr0.0 mm/hr 0.00 in0.0 mm
12:40 AM 68.2°F20.1°C 63.5°F17.5°C 85% 4.5 mph NE7.2 kmh NE 7.6 mph12.2 kmh 29.94 in1013.9 mb 0.00 in0.0 mm 0.00 in/hr0.0 mm/hr 0.00 in0.0 mm
12:45 AM 68.0°F20.0°C 63.3°F17.4°C 85% 7.6 mph NE12.2 kmh NE 10.7 mph17.2 kmh 29.94 in1013.9 mb 0.00 in0.0 mm 0.00 in/hr0.0 mm/hr 0.00 in0.0 mm
12:50 AM 68.0°F20.0°C 63.7°F17.6°C 86% 7.6 mph NE12.2 kmh NE 11.4 mph18.3 kmh 29.94 in1013.9 mb 0.00 in0.0 mm 0.00 in/hr0.0 mm/hr 0.00 in0.0 mm
12:55 AM 67.8°F19.9°C 63.5°F17.5°C 86% 3.8 mph NE6.1 kmh NE 11.4 mph18.3 kmh 29.94 in1013.9 mb 0.00 in0.0 mm 0.00 in/hr0.0 mm/hr 0.00 in0.0 mm
01:00 AM 67.6°F19.8°C 63.7°F17.6°C 87% 3.1 mph NE5.0 kmh NE 11.4 mph18.3 kmh 29.94 in1013.9 mb 0.00 in0.0 mm 0.00 in/hr0.0 mm/hr 0.00 in0.0 mm
01:05 AM 67.6°F19.8°C 63.7°F17.6°C 87% 5.4 mph NE8.7 kmh NE 7.6 mph12.2 kmh 29.94 in1013.9 mb 0.00 in0.0 mm 0.00 in/hr0.0 mm/hr 0.00 in0.0 mm
01:10 AM 67.5°F19.7°C 63.5°F17.5°C 87% 5.4 mph NE8.7 kmh NE 9.2 mph14.8 kmh 29.94 in1013.9 mb 0.00 in0.0 mm 0.00 in/hr0.0 mm/hr 0.00 in0.0 mm
01:15 AM 67.3°F19.6°C 63.6°F17.6°C 88% 3.8 mph NE6.1 kmh NE 9.8 mph15.8 kmh 29.94 in1013.9 mb 0.00 in0.0 mm 0.00 in/hr0.0 mm/hr 0.00 in0.0 mm
01:20 AM 67.3°F19.6°C 63.6°F17.6°C 88% 6.0 mph NE9.7 kmh NE 11.4 mph18.3 kmh 29.95 in1014.2 mb 0.00 in0.0 mm 0.00 in/hr0.0 mm/hr 0.00 in0.0 mm
01:25 AM 67.3°F19.6°C 63.6°F17.6°C 88% 8.3 mph NE13.4 kmh NE 11.4 mph18.3 kmh 29.95 in1014.2 mb 0.00 in0.0 mm 0.00 in/hr0.0 mm/hr 0.00 in0.0 mm
01:30 AM 67.3°F19.6°C 63.6°F17.6°C 88% 3.8 mph NE6.1 kmh NE 11.4 mph18.3 kmh 29.95 in1014.2 mb 0.00 in0.0 mm 0.00 in/hr0.0 mm/hr 0.00 in0.0 mm
01:35 AM 67.1°F19.5°C 63.5°F17.5°C 88% 7.6 mph NE12.2 kmh NE 11.4 mph18.3 kmh 29.94 in1013.9 mb 0.00 in0.0 mm 0.00 in/hr0.0 mm/hr 0.00 in0.0 mm
01:40 AM 67.1°F19.5°C 63.8°F17.7°C 89% 5.4 mph NE8.7 kmh NE 10.7 mph17.2 kmh 29.94 in1013.9 mb 0.00 in0.0 mm 0.00 in/hr0.0 mm/hr 0.00 in0.0 mm
01:45 AM 66.9°F19.4°C 63.6°F17.6°C 89% 5.4 mph NE8.7 kmh NE 10.7 mph17.2 kmh 29.93 in1013.5 mb 0.00 in0.0 mm 0.00 in/hr0.0 mm/hr 0.00 in0.0 mm
01:50 AM 66.9°F19.4°C 63.6°F17.6°C 89% 6.0 mph NE9.7 kmh NE 10.7 mph17.2 kmh 29.93 in1013.5 mb 0.00 in0.0 mm 0.00 in/hr0.0 mm/hr 0.00 in0.0 mm
01:55 AM 66.7°F19.3°C 63.7°F17.6°C 90% 6.9 mph NE11.1 kmh NE 11.4 mph18.3 kmh 29.93 in1013.5 mb 0.00 in0.0 mm 0.00 in/hr0.0 mm/hr 0.00 in0.0 mm
02:00 AM 66.7°F19.3°C 63.4°F17.4°C 89% 3.1 mph NE5.0 kmh NE 11.4 mph18.3 kmh 29.93 in1013.5 mb 0.00 in0.0 mm 0.00 in/hr0.0 mm/hr 0.00 in0.0 mm
02:05 AM 66.6°F19.2°C 63.2°F17.3°C 89% 3.8 mph NE6.1 kmh NE 10.7 mph17.2 kmh 29.93 in1013.5 mb 0.00 in0.0 mm 0.00 in/hr0.0 mm/hr 0.00 in0.0 mm
02:10 AM 66.4°F19.1°C 63.4°F17.4°C 90% 4.5 mph NE7.2 kmh NE 8.3 mph13.4 kmh 29.93 in1013.5 mb 0.00 in0.0 mm 0.00 in/hr0.0 mm/hr 0.00 in0.0 mm
02:15 AM 66.4°F19.1°C 63.7°F17.6°C 91% 5.4 mph NE8.7 kmh NE 12.1 mph19.5 kmh 29.93 in1013.5 mb 0.00 in0.0 mm 0.00 in/hr0.0 mm/hr 0.00 in0.0 mm
02:20 AM 66.4°F19.1°C 63.7°F17.6°C 91% 5.4 mph NE8.7 kmh NE 12.1 mph19.5 kmh 29.92 in1013.2 mb 0.00 in0.0 mm 0.00 in/hr0.0 mm/hr 0.00 in0.0 mm
02:25 AM 66.2°F19.0°C 63.5°F17.5°C 91% 4.5 mph NE7.2 kmh NE 10.7 mph17.2 kmh 29.92 in1013.2 mb 0.00 in0.0 mm 0.00 in/hr0.0 mm/hr 0.00 in0.0 mm
02:30 AM 66.2°F19.0°C 63.5°F17.5°C 91% 3.8 mph NE6.1 kmh NE 10.7 mph17.2 kmh 29.92 in1013.2 mb 0.00 in0.0 mm 0.00 in/hr0.0 mm/hr 0.00 in0.0 mm
02:35 AM 66.2°F19.0°C 63.5°F17.5°C 91% 3.8 mph NE6.1 kmh NE 9.8 mph15.8 kmh 29.92 in1013.2 mb 0.00 in0.0 mm 0.00 in/hr0.0 mm/hr 0.00 in0.0 mm
02:40 AM 66.2°F19.0°C 63.5°F17.5°C 91% 5.4 mph NE8.7 kmh NE 9.2 mph14.8 kmh 29.92 in1013.2 mb 0.00 in0.0 mm 0.00 in/hr0.0 mm/hr 0.00 in0.0 mm
02:45 AM 66.2°F19.0°C 63.5°F17.5°C 91% 3.8 mph NE6.1 kmh NE 10.7 mph17.2 kmh 29.91 in1012.9 mb 0.00 in0.0 mm 0.00 in/hr0.0 mm/hr 0.00 in0.0 mm
02:50 AM 66.2°F19.0°C 63.5°F17.5°C 91% 2.2 mph NE3.5 kmh NE 10.7 mph17.2 kmh 29.91 in1012.9 mb 0.00 in0.0 mm 0.00 in/hr0.0 mm/hr 0.00 in0.0 mm
02:55 AM 66.0°F18.9°C 63.3°F17.4°C 91% 6.9 mph ENE11.1 kmh ENE 9.8 mph15.8 kmh 29.92 in1013.2 mb 0.00 in0.0 mm 0.00 in/hr0.0 mm/hr 0.00 in0.0 mm
03:00 AM 66.0°F18.9°C 63.3°F17.4°C 91% 4.5 mph ENE7.2 kmh ENE 10.7 mph17.2 kmh 29.92 in1013.2 mb 0.00 in0.0 mm 0.00 in/hr0.0 mm/hr 0.00 in0.0 mm
03:05 AM 65.8°F18.8°C 63.2°F17.3°C 91% 3.1 mph ENE5.0 kmh ENE 10.7 mph17.2 kmh 29.91 in1012.9 mb 0.00 in0.0 mm 0.00 in/hr0.0 mm/hr 0.00 in0.0 mm
03:10 AM 65.8°F18.8°C 63.2°F17.3°C 91% 4.5 mph ENE7.2 kmh ENE 12.1 mph19.5 kmh 29.91 in1012.9 mb 0.00 in0.0 mm 0.00 in/hr0.0 mm/hr 0.00 in0.0 mm
03:15 AM 65.8°F18.8°C 63.2°F17.3°C 91% 3.8 mph NE6.1 kmh NE 12.1 mph19.5 kmh 29.91 in1012.9 mb 0.00 in0.0 mm 0.00 in/hr0.0 mm/hr 0.00 in0.0 mm
03:20 AM 65.7°F18.7°C 63.0°F17.2°C 91% 4.5 mph NE7.2 kmh NE 9.2 mph14.8 kmh 29.91 in1012.9 mb 0.00 in0.0 mm 0.00 in/hr0.0 mm/hr 0.00 in0.0 mm
03:25 AM 65.7°F18.7°C 63.0°F17.2°C 91% 5.4 mph NE8.7 kmh NE 9.2 mph14.8 kmh 29.91 in1012.9 mb 0.00 in0.0 mm 0.00 in/hr0.0 mm/hr 0.00 in0.0 mm
03:30 AM 65.5°F18.6°C 63.1°F17.3°C 92% 4.5 mph NE7.2 kmh NE 9.8 mph15.8 kmh 29.91 in1012.9 mb 0.00 in0.0 mm 0.00 in/hr0.0 mm/hr 0.00 in0.0 mm
03:35 AM 65.7°F18.7°C 63.3°F17.4°C 92% 4.5 mph NE7.2 kmh NE 9.8 mph15.8 kmh 29.91 in1012.9 mb 0.00 in0.0 mm 0.00 in/hr0.0 mm/hr 0.00 in0.0 mm
03:40 AM 65.5°F18.6°C 63.1°F17.3°C 92% 4.5 mph NE7.2 kmh NE 8.3 mph13.4 kmh 29.91 in1012.9 mb 0.00 in0.0 mm 0.00 in/hr0.0 mm/hr 0.00 in0.0 mm
03:45 AM 65.5°F18.6°C 63.4°F17.4°C 93% 3.8 mph NE6.1 kmh NE 10.7 mph17.2 kmh 29.91 in1012.9 mb 0.00 in0.0 mm 0.00 in/hr0.0 mm/hr 0.00 in0.0 mm
03:50 AM 65.5°F18.6°C 63.1°F17.3°C 92% 3.1 mph NE5.0 kmh NE 10.7 mph17.2 kmh 29.91 in1012.9 mb 0.00 in0.0 mm 0.00 in/hr0.0 mm/hr 0.00 in0.0 mm
03:55 AM 65.5°F18.6°C 63.4°F17.4°C 93% 6.0 mph NE9.7 kmh NE 9.8 mph15.8 kmh 29.91 in1012.9 mb 0.00 in0.0 mm 0.00 in/hr0.0 mm/hr 0.00 in0.0 mm
04:00 AM 65.5°F18.6°C 63.1°F17.3°C 92% 3.8 mph NE6.1 kmh NE 10.7 mph17.2 kmh 29.91 in1012.9 mb 0.00 in0.0 mm 0.00 in/hr0.0 mm/hr 0.00 in0.0 mm
04:05 AM 65.5°F18.6°C 63.1°F17.3°C 92% 3.1 mph NE5.0 kmh NE 10.7 mph17.2 kmh 29.90 in1012.5 mb 0.00 in0.0 mm 0.00 in/hr0.0 mm/hr 0.00 in0.0 mm
04:10 AM 65.3°F18.5°C 62.9°F17.2°C 92% 5.4 mph NE8.7 kmh NE 9.8 mph15.8 kmh 29.90 in1012.5 mb 0.00 in0.0 mm 0.00 in/hr0.0 mm/hr 0.00 in0.0 mm
04:15 AM 65.3°F18.5°C 62.9°F17.2°C 92% 5.4 mph NE8.7 kmh NE 9.2 mph14.8 kmh 29.91 in1012.9 mb 0.00 in0.0 mm 0.00 in/hr0.0 mm/hr 0.00 in0.0 mm
04:20 AM 65.5°F18.6°C 63.1°F17.3°C 92% 6.0 mph NE9.7 kmh NE 11.4 mph18.3 kmh 29.90 in1012.5 mb 0.00 in0.0 mm 0.00 in/hr0.0 mm/hr 0.00 in0.0 mm
04:25 AM 65.5°F18.6°C 63.1°F17.3°C 92% 5.4 mph NE8.7 kmh NE 11.4 mph18.3 kmh 29.90 in1012.5 mb 0.00 in0.0 mm 0.00 in/hr0.0 mm/hr 0.00 in0.0 mm
04:30 AM 65.5°F18.6°C 63.1°F17.3°C 92% 3.1 mph NE5.0 kmh NE 9.8 mph15.8 kmh 29.90 in1012.5 mb 0.00 in0.0 mm 0.00 in/hr0.0 mm/hr 0.00 in0.0 mm
04:35 AM 65.5°F18.6°C 62.8°F17.1°C 91% 6.9 mph NE11.1 kmh NE 10.7 mph17.2 kmh 29.90 in1012.5 mb 0.00 in0.0 mm 0.00 in/hr0.0 mm/hr 0.00 in0.0 mm
04:40 AM 65.7°F18.7°C 63.0°F17.2°C 91% 6.9 mph NE11.1 kmh NE 10.7 mph17.2 kmh 29.90 in1012.5 mb 0.00 in0.0 mm 0.00 in/hr0.0 mm/hr 0.00 in0.0 mm
04:45 AM 65.7°F18.7°C 63.0°F17.2°C 91% 5.4 mph NE8.7 kmh NE 10.7 mph17.2 kmh 29.90 in1012.5 mb 0.00 in0.0 mm 0.00 in/hr0.0 mm/hr 0.00 in0.0 mm
04:50 AM 65.7°F18.7°C 63.3°F17.4°C 92% 7.6 mph NE12.2 kmh NE 10.7 mph17.2 kmh 29.89 in1012.2 mb 0.00 in0.0 mm 0.00 in/hr0.0 mm/hr 0.00 in0.0 mm
04:55 AM 65.8°F18.8°C 63.5°F17.5°C 92% 6.0 mph NE9.7 kmh NE 12.1 mph19.5 kmh 29.89 in1012.2 mb 0.00 in0.0 mm 0.00 in/hr0.0 mm/hr 0.00 in0.0 mm
05:00 AM 65.8°F18.8°C 63.5°F17.5°C 92% 5.4 mph NE8.7 kmh NE 12.1 mph19.5 kmh 29.89 in1012.2 mb 0.00 in0.0 mm 0.00 in/hr0.0 mm/hr 0.00 in0.0 mm
05:05 AM 65.8°F18.8°C 63.5°F17.5°C 92% 9.2 mph NE14.8 kmh NE 12.1 mph19.5 kmh 29.90 in1012.5 mb 0.00 in0.0 mm 0.00 in/hr0.0 mm/hr 0.00 in0.0 mm
05:10 AM 66.0°F18.9°C 63.7°F17.6°C 92% 6.0 mph NE9.7 kmh NE 15.2 mph24.5 kmh 29.90 in1012.5 mb 0.00 in0.0 mm 0.00 in/hr0.0 mm/hr 0.00 in0.0 mm
05:15 AM 66.0°F18.9°C 63.3°F17.4°C 91% 8.3 mph NE13.4 kmh NE 15.2 mph24.5 kmh 29.89 in1012.2 mb 0.00 in0.0 mm 0.00 in/hr0.0 mm/hr 0.00 in0.0 mm
05:20 AM 66.0°F18.9°C 63.0°F17.2°C 90% 9.2 mph NE14.8 kmh NE 15.9 mph25.6 kmh 29.89 in1012.2 mb 0.00 in0.0 mm 0.00 in/hr0.0 mm/hr 0.00 in0.0 mm
05:25 AM 66.0°F18.9°C 63.0°F17.2°C 90% 10.7 mph NE17.2 kmh NE 15.9 mph25.6 kmh 29.90 in1012.5 mb 0.00 in0.0 mm 0.00 in/hr0.0 mm/hr 0.00 in0.0 mm
05:30 AM 66.0°F18.9°C 62.7°F17.1°C 89% 10.7 mph NE17.2 kmh NE 15.9 mph25.6 kmh 29.89 in1012.2 mb 0.00 in0.0 mm 0.00 in/hr0.0 mm/hr 0.00 in0.0 mm
05:35 AM 65.8°F18.8°C 62.5°F16.9°C 89% 8.3 mph NE13.4 kmh NE 15.9 mph25.6 kmh 29.90 in1012.5 mb 0.00 in0.0 mm 0.00 in/hr0.0 mm/hr 0.00 in0.0 mm
05:40 AM 65.7°F18.7°C 62.7°F17.1°C 90% 8.3 mph NE13.4 kmh NE 15.2 mph24.5 kmh 29.90 in1012.5 mb 0.00 in0.0 mm 0.00 in/hr0.0 mm/hr 0.00 in0.0 mm
05:45 AM 65.5°F18.6°C 62.5°F16.9°C 90% 6.9 mph NE11.1 kmh NE 15.2 mph24.5 kmh 29.90 in1012.5 mb 0.00 in0.0 mm 0.00 in/hr0.0 mm/hr 0.00 in0.0 mm
05:50 AM 65.5°F18.6°C 62.2°F16.8°C 89% 7.6 mph NE12.2 kmh NE 15.2 mph24.5 kmh 29.90 in1012.5 mb 0.00 in0.0 mm 0.00 in/hr0.0 mm/hr 0.00 in0.0 mm
05:55 AM 65.3°F18.5°C 62.3°F16.8°C 90% 5.4 mph NE8.7 kmh NE 13.0 mph20.9 kmh 29.90 in1012.5 mb 0.00 in0.0 mm 0.00 in/hr0.0 mm/hr 0.00 in0.0 mm
06:00 AM 65.3°F18.5°C 62.6°F17.0°C 91% 5.4 mph NE8.7 kmh NE 12.1 mph19.5 kmh 29.91 in1012.9 mb 0.00 in0.0 mm 0.00 in/hr0.0 mm/hr 0.00 in0.0 mm
06:05 AM 65.3°F18.5°C 62.9°F17.2°C 92% 3.8 mph NE6.1 kmh NE 12.1 mph19.5 kmh 29.91 in1012.9 mb 0.00 in0.0 mm 0.00 in/hr0.0 mm/hr 0.00 in0.0 mm
06:10 AM 65.3°F18.5°C 62.9°F17.2°C 92% 5.4 mph NE8.7 kmh NE 9.8 mph15.8 kmh 29.91 in1012.9 mb 0.00 in0.0 mm 0.00 in/hr0.0 mm/hr 0.00 in0.0 mm
06:15 AM 65.1°F18.4°C 63.1°F17.3°C 93% 5.4 mph NE8.7 kmh NE 9.8 mph15.8 kmh 29.91 in1012.9 mb 0.00 in0.0 mm 0.00 in/hr0.0 mm/hr 0.00 in0.0 mm
06:20 AM 65.1°F18.4°C 63.1°F17.3°C 93% 6.9 mph NE11.1 kmh NE 12.1 mph19.5 kmh 29.91 in1012.9 mb 0.00 in0.0 mm 0.00 in/hr0.0 mm/hr 0.00 in0.0 mm
06:25 AM 65.1°F18.4°C 63.1°F17.3°C 93% 4.5 mph NE7.2 kmh NE 12.1 mph19.5 kmh 29.91 in1012.9 mb 0.00 in0.0 mm 0.00 in/hr0.0 mm/hr 0.00 in0.0 mm
06:30 AM 64.9°F18.3°C 62.9°F17.2°C 93% 5.4 mph NE8.7 kmh NE 14.5 mph23.3 kmh 29.91 in1012.9 mb 0.00 in0.0 mm 0.00 in/hr0.0 mm/hr 0.00 in0.0 mm
06:35 AM 64.9°F18.3°C 62.9°F17.2°C 93% 3.1 mph NE5.0 kmh NE 14.5 mph23.3 kmh 29.91 in1012.9 mb 0.00 in0.0 mm 0.00 in/hr0.0 mm/hr 0.00 in0.0 mm
06:40 AM 64.8°F18.2°C 62.7°F17.1°C 93% 6.0 mph NE9.7 kmh NE 9.8 mph15.8 kmh 29.91 in1012.9 mb 0.00 in0.0 mm 0.00 in/hr0.0 mm/hr 0.00 in0.0 mm
06:45 AM 64.8°F18.2°C 63.0°F17.2°C 94% 6.9 mph NE11.1 kmh NE 10.7 mph17.2 kmh 29.92 in1013.2 mb 0.00 in0.0 mm 0.00 in/hr0.0 mm/hr 0.00 in0.0 mm
06:50 AM 64.8°F18.2°C 62.7°F17.1°C 93% 7.6 mph NE12.2 kmh NE 13.6 mph21.9 kmh 29.92 in1013.2 mb 0.00 in0.0 mm 0.00 in/hr0.0 mm/hr 0.00 in0.0 mm
06:55 AM 64.9°F18.3°C 62.9°F17.2°C 93% 7.6 mph NE12.2 kmh NE 13.6 mph21.9 kmh 29.92 in1013.2 mb 0.00 in0.0 mm 0.00 in/hr0.0 mm/hr 0.00 in0.0 mm
07:00 AM 64.8°F18.2°C 62.7°F17.1°C 93% 7.6 mph NE12.2 kmh NE 13.6 mph21.9 kmh 29.93 in1013.5 mb 0.00 in0.0 mm 0.00 in/hr0.0 mm/hr 0.00 in0.0 mm
07:05 AM 64.8°F18.2°C 62.7°F17.1°C 93% 9.2 mph NE14.8 kmh NE 13.6 mph21.9 kmh 29.92 in1013.2 mb 0.00 in0.0 mm 0.00 in/hr0.0 mm/hr 0.00 in0.0 mm
07:10 AM 64.9°F18.3°C 62.9°F17.2°C 93% 8.3 mph NE13.4 kmh NE 13.6 mph21.9 kmh 29.92 in1013.2 mb 0.00 in0.0 mm 0.00 in/hr0.0 mm/hr 0.00 in0.0 mm
07:15 AM 64.9°F18.3°C 62.9°F17.2°C 93% 11.4 mph NE18.3 kmh NE 14.5 mph23.3 kmh 29.93 in1013.5 mb 0.00 in0.0 mm 0.00 in/hr0.0 mm/hr 0.00 in0.0 mm
07:20 AM 64.9°F18.3°C 62.6°F17.0°C 92% 7.6 mph NE12.2 kmh NE 15.2 mph24.5 kmh 29.93 in1013.5 mb 0.00 in0.0 mm 0.00 in/hr0.0 mm/hr 0.00 in0.0 mm
07:25 AM 65.1°F18.4°C 63.1°F17.3°C 93% 6.0 mph NE9.7 kmh NE 15.2 mph24.5 kmh 29.93 in1013.5 mb 0.00 in0.0 mm 0.00 in/hr0.0 mm/hr 0.00 in0.0 mm
07:30 AM 65.1°F18.4°C 63.1°F17.3°C 93% 6.9 mph NNE11.1 kmh NNE 12.1 mph19.5 kmh 29.93 in1013.5 mb 0.00 in0.0 mm 0.00 in/hr0.0 mm/hr 0.00 in0.0 mm
07:35 AM 64.9°F18.3°C 62.6°F17.0°C 92% 8.3 mph NNE13.4 kmh NNE 15.2 mph24.5 kmh 29.93 in1013.5 mb 0.00 in0.0 mm 0.00 in/hr0.0 mm/hr 0.00 in0.0 mm
07:40 AM 65.1°F18.4°C 63.1°F17.3°C 93% 4.5 mph NNE7.2 kmh NNE 15.2 mph24.5 kmh 29.93 in1013.5 mb 0.00 in0.0 mm 0.00 in/hr0.0 mm/hr 0.00 in0.0 mm
07:45 AM 64.9°F18.3°C 62.9°F17.2°C 93% 5.4 mph NE8.7 kmh NE 15.2 mph24.5 kmh 29.93 in1013.5 mb 0.00 in0.0 mm 0.00 in/hr0.0 mm/hr 0.00 in0.0 mm
07:50 AM 64.9°F18.3°C 62.9°F17.2°C 93% 6.0 mph NE9.7 kmh NE 12.1 mph19.5 kmh 29.93 in1013.5 mb 0.00 in0.0 mm 0.00 in/hr0.0 mm/hr 0.00 in0.0 mm
07:55 AM 64.9°F18.3°C 62.9°F17.2°C 93% 8.3 mph NE13.4 kmh NE 11.4 mph18.3 kmh 29.93 in1013.5 mb 0.00 in0.0 mm 0.00 in/hr0.0 mm/hr 0.00 in0.0 mm
08:00 AM 64.9°F18.3°C 62.9°F17.2°C 93% 7.6 mph NNE12.2 kmh NNE 13.0 mph20.9 kmh 29.93 in1013.5 mb 0.00 in0.0 mm 0.00 in/hr0.0 mm/hr 0.00 in0.0 mm
08:05 AM 65.1°F18.4°C 63.1°F17.3°C 93% 6.0 mph NE9.7 kmh NE 13.0 mph20.9 kmh 29.94 in1013.9 mb 0.00 in0.0 mm 0.00 in/hr0.0 mm/hr 0.00 in0.0 mm
08:10 AM 65.5°F18.6°C 63.4°F17.4°C 93% 4.5 mph NE7.2 kmh NE 10.7 mph17.2 kmh 29.93 in1013.5 mb 0.00 in0.0 mm 0.00 in/hr0.0 mm/hr 0.00 in0.0 mm
08:15 AM 65.7°F18.7°C 63.3°F17.4°C 92% 8.3 mph NE13.4 kmh NE 12.1 mph19.5 kmh 29.94 in1013.9 mb 0.00 in0.0 mm 0.00 in/hr0.0 mm/hr 0.00 in0.0 mm
08:20 AM 66.0°F18.9°C 63.3°F17.4°C 91% 6.0 mph NNE9.7 kmh NNE 12.1 mph19.5 kmh 29.94 in1013.9 mb 0.00 in0.0 mm 0.00 in/hr0.0 mm/hr 0.00 in0.0 mm
08:25 AM 66.2°F19.0°C 63.5°F17.5°C 91% 5.4 mph NE8.7 kmh NE 12.1 mph19.5 kmh 29.94 in1013.9 mb 0.00 in0.0 mm 0.00 in/hr0.0 mm/hr 0.00 in0.0 mm
08:30 AM 66.6°F19.2°C 63.6°F17.6°C 90% 5.4 mph NNE8.7 kmh NNE 11.4 mph18.3 kmh 29.95 in1014.2 mb 0.00 in0.0 mm 0.00 in/hr0.0 mm/hr 0.00 in0.0 mm
08:35 AM 66.7°F19.3°C 63.4°F17.4°C 89% 6.0 mph NNE9.7 kmh NNE 13.0 mph20.9 kmh 29.94 in1013.9 mb 0.00 in0.0 mm 0.00 in/hr0.0 mm/hr 0.00 in0.0 mm
08:40 AM 67.1°F19.5°C 63.8°F17.7°C 89% 6.9 mph NNE11.1 kmh NNE 13.0 mph20.9 kmh 29.94 in1013.9 mb 0.00 in0.0 mm 0.00 in/hr0.0 mm/hr 0.00 in0.0 mm
08:45 AM 67.3°F19.6°C 63.6°F17.6°C 88% 6.0 mph NE9.7 kmh NE 14.5 mph23.3 kmh 29.94 in1013.9 mb 0.00 in0.0 mm 0.00 in/hr0.0 mm/hr 0.00 in0.0 mm
08:50 AM 67.5°F19.7°C 63.5°F17.5°C 87% 9.2 mph NE14.8 kmh NE 14.5 mph23.3 kmh 29.95 in1014.2 mb 0.00 in0.0 mm 0.00 in/hr0.0 mm/hr 0.00 in0.0 mm
08:55 AM 68.0°F20.0°C 64.0°F17.8°C 87% 5.4 mph NE8.7 kmh NE 12.1 mph19.5 kmh 29.95 in1014.2 mb 0.00 in0.0 mm 0.00 in/hr0.0 mm/hr 0.00 in0.0 mm
09:00 AM 68.2°F20.1°C 63.9°F17.7°C 86% 6.9 mph NE11.1 kmh NE 13.6 mph21.9 kmh 29.95 in1014.2 mb 0.00 in0.0 mm 0.00 in/hr0.0 mm/hr 0.00 in0.0 mm
09:05 AM 68.4°F20.2°C 63.7°F17.6°C 85% 9.2 mph NE14.8 kmh NE 13.6 mph21.9 kmh 29.95 in1014.2 mb 0.00 in0.0 mm 0.00 in/hr0.0 mm/hr 0.00 in0.0 mm
09:10 AM 68.5°F20.3°C 63.9°F17.7°C 85% 9.8 mph NE15.8 kmh NE 15.2 mph24.5 kmh 29.95 in1014.2 mb 0.00 in0.0 mm 0.00 in/hr0.0 mm/hr 0.00 in0.0 mm
09:15 AM 68.9°F20.5°C 63.9°F17.7°C 84% 9.2 mph NNE14.8 kmh NNE 15.2 mph24.5 kmh 29.95 in1014.2 mb 0.00 in0.0 mm 0.00 in/hr0.0 mm/hr 0.00 in0.0 mm
09:20 AM 69.3°F20.7°C 63.9°F17.7°C 83% 9.2 mph NNE14.8 kmh NNE 15.9 mph25.6 kmh 29.96 in1014.6 mb 0.00 in0.0 mm 0.00 in/hr0.0 mm/hr 0.00 in0.0 mm
09:25 AM 69.6°F20.9°C 64.3°F17.9°C 83% 5.4 mph NNE8.7 kmh NNE 15.9 mph25.6 kmh 29.95 in1014.2 mb 0.00 in0.0 mm 0.00 in/hr0.0 mm/hr 0.00 in0.0 mm
09:30 AM 70.0°F21.1°C 64.3°F17.9°C 82% 6.0 mph NE9.7 kmh NE 14.5 mph23.3 kmh 29.96 in1014.6 mb 0.00 in0.0 mm 0.00 in/hr0.0 mm/hr 0.00 in0.0 mm
09:35 AM 70.3°F21.3°C 64.3°F17.9°C 81% 8.3 mph NNE13.4 kmh NNE 15.2 mph24.5 kmh 29.96 in1014.6 mb 0.00 in0.0 mm 0.00 in/hr0.0 mm/hr 0.00 in0.0 mm
09:40 AM 70.7°F21.5°C 64.3°F17.9°C 80% 9.8 mph NNE15.8 kmh NNE 15.2 mph24.5 kmh 29.96 in1014.6 mb 0.00 in0.0 mm 0.00 in/hr0.0 mm/hr 0.00 in0.0 mm
09:45 AM 70.9°F21.6°C 64.1°F17.8°C 79% 6.9 mph NNE11.1 kmh NNE 15.2 mph24.5 kmh 29.96 in1014.6 mb 0.00 in0.0 mm 0.00 in/hr0.0 mm/hr 0.00 in0.0 mm
09:50 AM 71.2°F21.8°C 64.8°F18.2°C 80% 9.2 mph NE14.8 kmh NE 15.9 mph25.6 kmh 29.96 in1014.6 mb 0.00 in0.0 mm 0.00 in/hr0.0 mm/hr 0.00 in0.0 mm
09:55 AM 72.0°F22.2°C 64.8°F18.2°C 78% 9.8 mph NE15.8 kmh NE 15.9 mph25.6 kmh 29.96 in1014.6 mb 0.00 in0.0 mm 0.00 in/hr0.0 mm/hr 0.00 in0.0 mm
10:00 AM 72.3°F22.4°C 64.7°F18.2°C 77% 9.8 mph NE15.8 kmh NE 17.4 mph28.0 kmh 29.96 in1014.6 mb 0.00 in0.0 mm 0.00 in/hr0.0 mm/hr 0.00 in0.0 mm
10:05 AM 72.5°F22.5°C 64.5°F18.1°C 76% 9.8 mph NE15.8 kmh NE 17.4 mph28.0 kmh 29.95 in1014.2 mb 0.00 in0.0 mm 0.00 in/hr0.0 mm/hr 0.00 in0.0 mm
10:10 AM 72.9°F22.7°C 64.9°F18.3°C 76% 7.6 mph NE12.2 kmh NE 15.9 mph25.6 kmh 29.95 in1014.2 mb 0.00 in0.0 mm 0.00 in/hr0.0 mm/hr 0.00 in0.0 mm
10:15 AM 73.6°F23.1°C 64.8°F18.2°C 74% 12.1 mph N19.5 kmh N 17.4 mph28.0 kmh 29.96 in1014.6 mb 0.00 in0.0 mm 0.00 in/hr0.0 mm/hr 0.00 in0.0 mm
10:20 AM 73.8°F23.2°C 64.6°F18.1°C 73% 9.8 mph N15.8 kmh N 17.4 mph28.0 kmh 29.95 in1014.2 mb 0.00 in0.0 mm 0.00 in/hr0.0 mm/hr 0.00 in0.0 mm
10:25 AM 74.3°F23.5°C 65.5°F18.6°C 74% 8.3 mph NNE13.4 kmh NNE 17.4 mph28.0 kmh 29.96 in1014.6 mb 0.00 in0.0 mm 0.00 in/hr0.0 mm/hr 0.00 in0.0 mm
10:30 AM 74.7°F23.7°C 65.1°F18.4°C 72% 13.0 mph NNE20.9 kmh NNE 16.8 mph27.0 kmh 29.96 in1014.6 mb 0.00 in0.0 mm 0.00 in/hr0.0 mm/hr 0.00 in0.0 mm
10:35 AM 74.5°F23.6°C 65.3°F18.5°C 73% 12.1 mph NNE19.5 kmh NNE 16.8 mph27.0 kmh 29.96 in1014.6 mb 0.00 in0.0 mm 0.00 in/hr0.0 mm/hr 0.00 in0.0 mm
10:40 AM 75.0°F23.9°C 65.8°F18.8°C 73% 9.8 mph NNE15.8 kmh NNE 16.8 mph27.0 kmh 29.96 in1014.6 mb 0.00 in0.0 mm 0.00 in/hr0.0 mm/hr 0.00 in0.0 mm
10:45 AM 75.6°F24.2°C 65.9°F18.8°C 72% 10.7 mph NNE17.2 kmh NNE 16.8 mph27.0 kmh 29.95 in1014.2 mb 0.00 in0.0 mm 0.00 in/hr0.0 mm/hr 0.00 in0.0 mm
10:50 AM 75.9°F24.4°C 65.5°F18.6°C 70% 11.4 mph N18.3 kmh N 16.8 mph27.0 kmh 29.95 in1014.2 mb 0.00 in0.0 mm 0.00 in/hr0.0 mm/hr 0.00 in0.0 mm
10:55 AM 76.1°F24.5°C 65.6°F18.7°C 70% 10.7 mph NNE17.2 kmh NNE 20.6 mph33.2 kmh 29.95 in1014.2 mb 0.00 in0.0 mm 0.00 in/hr0.0 mm/hr 0.00 in0.0 mm
11:00 AM 76.3°F24.6°C 65.8°F18.8°C 70% 9.8 mph N15.8 kmh N 20.6 mph33.2 kmh 29.95 in1014.2 mb 0.00 in0.0 mm 0.00 in/hr0.0 mm/hr 0.00 in0.0 mm
11:05 AM 76.8°F24.9°C 66.3°F19.1°C 70% 10.7 mph N17.2 kmh N 17.4 mph28.0 kmh 29.96 in1014.6 mb 0.00 in0.0 mm 0.00 in/hr0.0 mm/hr 0.00 in0.0 mm
11:10 AM 77.4°F25.2°C 66.0°F18.9°C 68% 11.4 mph NNE18.3 kmh NNE 18.3 mph29.5 kmh 29.96 in1014.6 mb 0.00 in0.0 mm 0.00 in/hr0.0 mm/hr 0.00 in0.0 mm
11:15 AM 77.5°F25.3°C 66.2°F19.0°C 68% 10.7 mph N17.2 kmh N 18.3 mph29.5 kmh 29.95 in1014.2 mb 0.00 in0.0 mm 0.00 in/hr0.0 mm/hr 0.00 in0.0 mm
11:20 AM 77.7°F25.4°C 66.4°F19.1°C 68% 10.7 mph N17.2 kmh N 16.8 mph27.0 kmh 29.95 in1014.2 mb 0.00 in0.0 mm 0.00 in/hr0.0 mm/hr 0.00 in0.0 mm
11:25 AM 77.7°F25.4°C 65.5°F18.6°C 66% 11.4 mph NNE18.3 kmh NNE 16.8 mph27.0 kmh 29.96 in1014.6 mb 0.00 in0.0 mm 0.00 in/hr0.0 mm/hr 0.00 in0.0 mm
11:30 AM 78.3°F25.7°C 66.9°F19.4°C 68% 9.2 mph NNE14.8 kmh NNE 15.9 mph25.6 kmh 29.95 in1014.2 mb 0.00 in0.0 mm 0.00 in/hr0.0 mm/hr 0.00 in0.0 mm
11:35 AM 78.4°F25.8°C 65.7°F18.7°C 65% 13.0 mph N20.9 kmh N 17.4 mph28.0 kmh 29.95 in1014.2 mb 0.00 in0.0 mm 0.00 in/hr0.0 mm/hr 0.00 in0.0 mm
11:40 AM 78.6°F25.9°C 65.5°F18.6°C 64% 9.8 mph N15.8 kmh N 17.4 mph28.0 kmh 29.96 in1014.6 mb 0.00 in0.0 mm 0.00 in/hr0.0 mm/hr 0.00 in0.0 mm
11:45 AM 78.4°F25.8°C 65.7°F18.7°C 65% 10.7 mph N17.2 kmh N 17.4 mph28.0 kmh 29.95 in1014.2 mb 0.00 in0.0 mm 0.00 in/hr0.0 mm/hr 0.00 in0.0 mm
11:50 AM 78.8°F26.0°C 65.6°F18.7°C 64% 9.8 mph N15.8 kmh N 17.4 mph28.0 kmh 29.95 in1014.2 mb 0.00 in0.0 mm 0.00 in/hr0.0 mm/hr 0.00 in0.0 mm
11:55 AM 79.7°F26.5°C 66.0°F18.9°C 63% 9.2 mph NNE14.8 kmh NNE 17.4 mph28.0 kmh 29.95 in1014.2 mb 0.00 in0.0 mm 0.00 in/hr0.0 mm/hr 0.00 in0.0 mm
12:00 PM 80.1°F26.7°C 66.4°F19.1°C 63% 8.3 mph NNE13.4 kmh NNE 16.8 mph27.0 kmh 29.95 in1014.2 mb 0.00 in0.0 mm 0.00 in/hr0.0 mm/hr 0.00 in0.0 mm
12:05 PM 80.4°F26.9°C 66.3°F19.1°C 62% 10.7 mph N17.2 kmh N 16.8 mph27.0 kmh 29.95 in1014.2 mb 0.00 in0.0 mm 0.00 in/hr0.0 mm/hr 0.00 in0.0 mm
12:10 PM 80.4°F26.9°C 66.7°F19.3°C 63% 6.0 mph N9.7 kmh N 15.2 mph24.5 kmh 29.95 in1014.2 mb 0.00 in0.0 mm 0.00 in/hr0.0 mm/hr 0.00 in0.0 mm
12:30 PM 81.0°F27.2°C 65.3°F18.5°C 59% 8.3 mph NE13.4 kmh NE 14.5 mph23.3 kmh 29.93 in1013.5 mb 0.00 in0.0 mm 0.00 in/hr0.0 mm/hr 0.00 in0.0 mm
12:35 PM 81.1°F27.3°C 65.5°F18.6°C 59% 7.6 mph NNE12.2 kmh NNE 14.5 mph23.3 kmh 29.93 in1013.5 mb 0.00 in0.0 mm 0.00 in/hr0.0 mm/hr 0.00 in0.0 mm
12:40 PM 81.5°F27.5°C 65.8°F18.8°C 59% 7.6 mph N12.2 kmh N 15.2 mph24.5 kmh 29.93 in1013.5 mb 0.00 in0.0 mm 0.00 in/hr0.0 mm/hr 0.00 in0.0 mm
12:45 PM 81.9°F27.7°C 65.7°F18.7°C 58% 5.4 mph N8.7 kmh N 15.2 mph24.5 kmh 29.93 in1013.5 mb 0.00 in0.0 mm 0.00 in/hr0.0 mm/hr 0.00 in0.0 mm
12:50 PM 82.6°F28.1°C 65.3°F18.5°C 56% 11.4 mph NNE18.3 kmh NNE 15.2 mph24.5 kmh 29.93 in1013.5 mb 0.00 in0.0 mm 0.00 in/hr0.0 mm/hr 0.00 in0.0 mm
12:55 PM 82.2°F27.9°C 65.5°F18.6°C 57% 7.6 mph N12.2 kmh N 15.2 mph24.5 kmh 29.92 in1013.2 mb 0.00 in0.0 mm 0.00 in/hr0.0 mm/hr 0.00 in0.0 mm
01:00 PM 82.9°F28.3°C 66.2°F19.0°C 57% 6.0 mph N9.7 kmh N 14.5 mph23.3 kmh 29.93 in1013.5 mb 0.00 in0.0 mm 0.00 in/hr0.0 mm/hr 0.00 in0.0 mm
01:05 PM 83.7°F28.7°C 65.3°F18.5°C 54% 9.2 mph NNE14.8 kmh NNE 14.5 mph23.3 kmh 29.93 in1013.5 mb 0.00 in0.0 mm 0.00 in/hr0.0 mm/hr 0.00 in0.0 mm
01:10 PM 83.5°F28.6°C 65.7°F18.7°C 55% 5.4 mph NE8.7 kmh NE 14.5 mph23.3 kmh 29.92 in1013.2 mb 0.00 in0.0 mm 0.00 in/hr0.0 mm/hr 0.00 in0.0 mm
01:15 PM 84.0°F28.9°C 64.6°F18.1°C 52% 8.3 mph N13.4 kmh N 14.5 mph23.3 kmh 29.92 in1013.2 mb 0.00 in0.0 mm 0.00 in/hr0.0 mm/hr 0.00 in0.0 mm
01:20 PM 84.2°F29.0°C 65.3°F18.5°C 53% 3.1 mph N5.0 kmh N 13.0 mph20.9 kmh 29.92 in1013.2 mb 0.00 in0.0 mm 0.00 in/hr0.0 mm/hr 0.00 in0.0 mm
01:25 PM 84.4°F29.1°C 64.9°F18.3°C 52% 5.4 mph N8.7 kmh N 13.6 mph21.9 kmh 29.92 in1013.2 mb 0.00 in0.0 mm 0.00 in/hr0.0 mm/hr 0.00 in0.0 mm
01:30 PM 84.6°F29.2°C 65.1°F18.4°C 52% 6.9 mph N11.1 kmh N 13.6 mph21.9 kmh 29.91 in1012.9 mb 0.00 in0.0 mm 0.00 in/hr0.0 mm/hr 0.00 in0.0 mm
01:35 PM 84.6°F29.2°C 65.6°F18.7°C 53% 6.9 mph N11.1 kmh N 10.7 mph17.2 kmh 29.91 in1012.9 mb 0.00 in0.0 mm 0.00 in/hr0.0 mm/hr 0.00 in0.0 mm
01:40 PM 84.9°F29.4°C 64.8°F18.2°C 51% 9.8 mph NNE15.8 kmh NNE 16.8 mph27.0 kmh 29.91 in1012.9 mb 0.00 in0.0 mm 0.00 in/hr0.0 mm/hr 0.00 in0.0 mm
01:45 PM 84.4°F29.1°C 64.9°F18.3°C 52% 6.0 mph NNE9.7 kmh NNE 16.8 mph27.0 kmh 29.91 in1012.9 mb 0.00 in0.0 mm 0.00 in/hr0.0 mm/hr 0.00 in0.0 mm
01:50 PM 84.6°F29.2°C 65.6°F18.7°C 53% 7.6 mph NNE12.2 kmh NNE 14.5 mph23.3 kmh 29.90 in1012.5 mb 0.00 in0.0 mm 0.00 in/hr0.0 mm/hr 0.00 in0.0 mm
01:55 PM 84.9°F29.4°C 64.8°F18.2°C 51% 8.3 mph N13.4 kmh N 11.4 mph18.3 kmh 29.90 in1012.5 mb 0.00 in0.0 mm 0.00 in/hr0.0 mm/hr 0.00 in0.0 mm
02:00 PM 84.7°F29.3°C 65.2°F18.4°C 52% 8.3 mph N13.4 kmh N 13.0 mph20.9 kmh 29.90 in1012.5 mb 0.00 in0.0 mm 0.00 in/hr0.0 mm/hr 0.00 in0.0 mm
02:05 PM 84.4°F29.1°C 64.9°F18.3°C 52% 3.1 mph N5.0 kmh N 13.0 mph20.9 kmh 29.89 in1012.2 mb 0.00 in0.0 mm 0.00 in/hr0.0 mm/hr 0.00 in0.0 mm
02:10 PM 85.1°F29.5°C 66.1°F18.9°C 53% 5.4 mph N8.7 kmh N 13.0 mph20.9 kmh 29.89 in1012.2 mb 0.00 in0.0 mm 0.00 in/hr0.0 mm/hr 0.00 in0.0 mm
02:15 PM 84.9°F29.4°C 65.4°F18.6°C 52% 5.4 mph N8.7 kmh N 13.0 mph20.9 kmh 29.89 in1012.2 mb 0.00 in0.0 mm 0.00 in/hr0.0 mm/hr 0.00 in0.0 mm
02:20 PM 84.9°F29.4°C 65.9°F18.8°C 53% 6.0 mph N9.7 kmh N 13.0 mph20.9 kmh 29.89 in1012.2 mb 0.00 in0.0 mm 0.00 in/hr0.0 mm/hr 0.00 in0.0 mm
02:25 PM 85.1°F29.5°C 66.1°F18.9°C 53% 9.2 mph N14.8 kmh N 13.0 mph20.9 kmh 29.89 in1012.2 mb 0.00 in0.0 mm 0.00 in/hr0.0 mm/hr 0.00 in0.0 mm
02:30 PM 84.9°F29.4°C 65.9°F18.8°C 53% 9.2 mph N14.8 kmh N 13.0 mph20.9 kmh 29.89 in1012.2 mb 0.00 in0.0 mm 0.00 in/hr0.0 mm/hr 0.00 in0.0 mm
02:35 PM 84.9°F29.4°C 65.9°F18.8°C 53% 3.1 mph N5.0 kmh N 13.0 mph20.9 kmh 29.88 in1011.9 mb 0.00 in0.0 mm 0.00 in/hr0.0 mm/hr 0.00 in0.0 mm
02:40 PM 84.6°F29.2°C 65.1°F18.4°C 52% 6.0 mph N9.7 kmh N 13.0 mph20.9 kmh 29.88 in1011.9 mb 0.00 in0.0 mm 0.00 in/hr0.0 mm/hr 0.00 in0.0 mm
02:45 PM 84.6°F29.2°C 65.6°F18.7°C 53% 6.0 mph N9.7 kmh N 13.6 mph21.9 kmh 29.88 in1011.9 mb 0.00 in0.0 mm 0.00 in/hr0.0 mm/hr 0.00 in0.0 mm
02:50 PM 84.7°F29.3°C 65.8°F18.8°C 53% 8.3 mph NNE13.4 kmh NNE 13.6 mph21.9 kmh 29.88 in1011.9 mb 0.00 in0.0 mm 0.00 in/hr0.0 mm/hr 0.00 in0.0 mm
02:55 PM 85.1°F29.5°C 66.1°F18.9°C 53% 4.5 mph NNE7.2 kmh NNE 13.0 mph20.9 kmh 29.87 in1011.5 mb 0.00 in0.0 mm 0.00 in/hr0.0 mm/hr 0.00 in0.0 mm
03:00 PM 85.8°F29.9°C 66.2°F19.0°C 52% 8.3 mph N13.4 kmh N 12.1 mph19.5 kmh 29.87 in1011.5 mb 0.00 in0.0 mm 0.00 in/hr0.0 mm/hr 0.00 in0.0 mm
03:05 PM 85.6°F29.8°C 66.6°F19.2°C 53% 9.2 mph N14.8 kmh N 13.6 mph21.9 kmh 29.86 in1011.2 mb 0.00 in0.0 mm 0.00 in/hr0.0 mm/hr 0.00 in0.0 mm
03:10 PM 84.4°F29.1°C 64.9°F18.3°C 52% 7.6 mph N12.2 kmh N 13.6 mph21.9 kmh 29.86 in1011.2 mb 0.00 in0.0 mm 0.00 in/hr0.0 mm/hr 0.00 in0.0 mm
03:15 PM 84.4°F29.1°C 65.4°F18.6°C 53% 7.6 mph N12.2 kmh N 13.6 mph21.9 kmh 29.87 in1011.5 mb 0.00 in0.0 mm 0.00 in/hr0.0 mm/hr 0.00 in0.0 mm
03:20 PM 84.4°F29.1°C 66.0°F18.9°C 54% 9.8 mph N15.8 kmh N 15.9 mph25.6 kmh 29.87 in1011.5 mb 0.00 in0.0 mm 0.00 in/hr0.0 mm/hr 0.00 in0.0 mm
03:25 PM 83.8°F28.8°C 66.0°F18.9°C 55% 8.3 mph N13.4 kmh N 15.9 mph25.6 kmh 29.87 in1011.5 mb 0.00 in0.0 mm 0.00 in/hr0.0 mm/hr 0.00 in0.0 mm
03:30 PM 83.7°F28.7°C 65.8°F18.8°C 55% 7.6 mph NW12.2 kmh NW 15.2 mph24.5 kmh 29.86 in1011.2 mb 0.00 in0.0 mm 0.00 in/hr0.0 mm/hr 0.00 in0.0 mm
03:35 PM 83.8°F28.8°C 66.5°F19.2°C 56% 6.9 mph NW11.1 kmh NW 13.0 mph20.9 kmh 29.87 in1011.5 mb 0.00 in0.0 mm 0.00 in/hr0.0 mm/hr 0.00 in0.0 mm
03:40 PM 83.1°F28.4°C 64.8°F18.2°C 54% 10.7 mph NW17.2 kmh NW 13.6 mph21.9 kmh 29.86 in1011.2 mb 0.00 in0.0 mm 0.00 in/hr0.0 mm/hr 0.00 in0.0 mm
03:45 PM 82.6°F28.1°C 65.3°F18.5°C 56% 9.8 mph NW15.8 kmh NW 14.5 mph23.3 kmh 29.86 in1011.2 mb 0.00 in0.0 mm 0.00 in/hr0.0 mm/hr 0.00 in0.0 mm
03:50 PM 82.8°F28.2°C 66.0°F18.9°C 57% 5.4 mph NW8.7 kmh NW 14.5 mph23.3 kmh 29.86 in1011.2 mb 0.00 in0.0 mm 0.00 in/hr0.0 mm/hr 0.00 in0.0 mm
03:55 PM 82.6°F28.1°C 64.8°F18.2°C 55% 10.7 mph N17.2 kmh N 15.2 mph24.5 kmh 29.85 in1010.8 mb 0.00 in0.0 mm 0.00 in/hr0.0 mm/hr 0.00 in0.0 mm
04:00 PM 81.9°F27.7°C 65.2°F18.4°C 57% 8.3 mph N13.4 kmh N 15.2 mph24.5 kmh 29.86 in1011.2 mb 0.00 in0.0 mm 0.00 in/hr0.0 mm/hr 0.00 in0.0 mm
04:05 PM 81.9°F27.7°C 65.2°F18.4°C 57% 6.9 mph NW11.1 kmh NW 13.6 mph21.9 kmh 29.86 in1011.2 mb 0.00 in0.0 mm 0.00 in/hr0.0 mm/hr 0.00 in0.0 mm
04:10 PM 82.4°F28.0°C 65.2°F18.4°C 56% 9.2 mph NW14.8 kmh NW 13.6 mph21.9 kmh 29.86 in1011.2 mb 0.00 in0.0 mm 0.00 in/hr0.0 mm/hr 0.00 in0.0 mm
04:15 PM 81.3°F27.4°C 64.7°F18.2°C 57% 7.6 mph NW12.2 kmh NW 13.6 mph21.9 kmh 29.85 in1010.8 mb 0.00 in0.0 mm 0.00 in/hr0.0 mm/hr 0.00 in0.0 mm
04:20 PM 81.5°F27.5°C 64.8°F18.2°C 57% 2.2 mph NW3.5 kmh NW 13.6 mph21.9 kmh 29.85 in1010.8 mb 0.00 in0.0 mm 0.00 in/hr0.0 mm/hr 0.00 in0.0 mm
04:25 PM 81.9°F27.7°C 65.2°F18.4°C 57% 3.8 mph NW6.1 kmh NW 13.0 mph20.9 kmh 29.85 in1010.8 mb 0.00 in0.0 mm 0.00 in/hr0.0 mm/hr 0.00 in0.0 mm
04:30 PM 81.3°F27.4°C 64.7°F18.2°C 57% 6.9 mph NW11.1 kmh NW 16.8 mph27.0 kmh 29.85 in1010.8 mb 0.00 in0.0 mm 0.00 in/hr0.0 mm/hr 0.00 in0.0 mm
04:35 PM 81.3°F27.4°C 64.7°F18.2°C 57% 6.0 mph NW9.7 kmh NW 16.8 mph27.0 kmh 29.85 in1010.8 mb 0.00 in0.0 mm 0.00 in/hr0.0 mm/hr 0.00 in0.0 mm
04:40 PM 81.3°F27.4°C 64.7°F18.2°C 57% 9.2 mph NW14.8 kmh NW 13.0 mph20.9 kmh 29.85 in1010.8 mb 0.00 in0.0 mm 0.00 in/hr0.0 mm/hr 0.00 in0.0 mm
04:45 PM 81.3°F27.4°C 65.2°F18.4°C 58% 6.0 mph NW9.7 kmh NW 13.0 mph20.9 kmh 29.85 in1010.8 mb 0.00 in0.0 mm 0.00 in/hr0.0 mm/hr 0.00 in0.0 mm
04:50 PM 81.3°F27.4°C 65.2°F18.4°C 58% 9.2 mph NW14.8 kmh NW 14.5 mph23.3 kmh 29.85 in1010.8 mb 0.00 in0.0 mm 0.00 in/hr0.0 mm/hr 0.00 in0.0 mm
04:55 PM 81.5°F27.5°C 64.8°F18.2°C 57% 6.0 mph NW9.7 kmh NW 14.5 mph23.3 kmh 29.84 in1010.5 mb 0.00 in0.0 mm 0.00 in/hr0.0 mm/hr 0.00 in0.0 mm
05:00 PM 81.3°F27.4°C 65.2°F18.4°C 58% 8.3 mph NW13.4 kmh NW 14.5 mph23.3 kmh 29.85 in1010.8 mb 0.00 in0.0 mm 0.00 in/hr0.0 mm/hr 0.00 in0.0 mm
05:05 PM 80.8°F27.1°C 65.2°F18.4°C 59% 6.0 mph NW9.7 kmh NW 11.4 mph18.3 kmh 29.85 in1010.8 mb 0.00 in0.0 mm 0.00 in/hr0.0 mm/hr 0.00 in0.0 mm
05:10 PM 80.6°F27.0°C 65.0°F18.3°C 59% 6.0 mph NW9.7 kmh NW 11.4 mph18.3 kmh 29.85 in1010.8 mb 0.00 in0.0 mm 0.00 in/hr0.0 mm/hr 0.00 in0.0 mm
05:15 PM 80.4°F26.9°C 65.3°F18.5°C 60% 6.9 mph NW11.1 kmh NW 10.7 mph17.2 kmh 29.85 in1010.8 mb 0.00 in0.0 mm 0.00 in/hr0.0 mm/hr 0.00 in0.0 mm
05:20 PM 80.6°F27.0°C 65.5°F18.6°C 60% 4.5 mph NW7.2 kmh NW 10.7 mph17.2 kmh 29.85 in1010.8 mb 0.00 in0.0 mm 0.00 in/hr0.0 mm/hr 0.00 in0.0 mm
05:25 PM 80.4°F26.9°C 65.3°F18.5°C 60% 6.0 mph NW9.7 kmh NW 10.7 mph17.2 kmh 29.85 in1010.8 mb 0.00 in0.0 mm 0.00 in/hr0.0 mm/hr 0.00 in0.0 mm
05:30 PM 80.4°F26.9°C 65.8°F18.8°C 61% 4.5 mph NW7.2 kmh NW 9.2 mph14.8 kmh 29.85 in1010.8 mb 0.00 in0.0 mm 0.00 in/hr0.0 mm/hr 0.00 in0.0 mm
05:35 PM 80.4°F26.9°C 65.8°F18.8°C 61% 6.0 mph NW9.7 kmh NW 9.2 mph14.8 kmh 29.85 in1010.8 mb 0.00 in0.0 mm 0.00 in/hr0.0 mm/hr 0.00 in0.0 mm
05:40 PM 80.6°F27.0°C 66.0°F18.9°C 61% 5.4 mph WNW8.7 kmh WNW 9.2 mph14.8 kmh 29.85 in1010.8 mb 0.00 in0.0 mm 0.00 in/hr0.0 mm/hr 0.00 in0.0 mm
05:45 PM 80.2°F26.8°C 65.6°F18.7°C 61% 4.5 mph NW7.2 kmh NW 11.4 mph18.3 kmh 29.85 in1010.8 mb 0.00 in0.0 mm 0.00 in/hr0.0 mm/hr 0.00 in0.0 mm
05:50 PM 79.9°F26.6°C 65.7°F18.7°C 62% 5.4 mph NW8.7 kmh NW 11.4 mph18.3 kmh 29.84 in1010.5 mb 0.00 in0.0 mm 0.00 in/hr0.0 mm/hr 0.00 in0.0 mm
05:55 PM 79.5°F26.4°C 65.4°F18.6°C 62% 6.9 mph NW11.1 kmh NW 10.7 mph17.2 kmh 29.85 in1010.8 mb 0.00 in0.0 mm 0.00 in/hr0.0 mm/hr 0.00 in0.0 mm
06:00 PM 78.8°F26.0°C 65.2°F18.4°C 63% 4.5 mph NW7.2 kmh NW 9.8 mph15.8 kmh 29.85 in1010.8 mb 0.00 in0.0 mm 0.00 in/hr0.0 mm/hr 0.00 in0.0 mm
06:05 PM 78.6°F25.9°C 65.5°F18.6°C 64% 4.5 mph NW7.2 kmh NW 9.8 mph15.8 kmh 29.85 in1010.8 mb 0.00 in0.0 mm 0.00 in/hr0.0 mm/hr 0.00 in0.0 mm
06:10 PM 78.8°F26.0°C 65.6°F18.7°C 64% 4.5 mph NW7.2 kmh NW 9.2 mph14.8 kmh 29.85 in1010.8 mb 0.00 in0.0 mm 0.00 in/hr0.0 mm/hr 0.00 in0.0 mm
06:15 PM 78.1°F25.6°C 65.4°F18.6°C 65% 7.6 mph NW12.2 kmh NW 13.0 mph20.9 kmh 29.85 in1010.8 mb 0.00 in0.0 mm 0.00 in/hr0.0 mm/hr 0.00 in0.0 mm
06:20 PM 77.5°F25.3°C 64.9°F18.3°C 65% 6.9 mph NW11.1 kmh NW 13.0 mph20.9 kmh 29.85 in1010.8 mb 0.00 in0.0 mm 0.00 in/hr0.0 mm/hr 0.00 in0.0 mm
06:25 PM 77.0°F25.0°C 65.2°F18.4°C 67% 6.0 mph NW9.7 kmh NW 11.4 mph18.3 kmh 29.84 in1010.5 mb 0.00 in0.0 mm 0.00 in/hr0.0 mm/hr 0.00 in0.0 mm
06:30 PM 76.6°F24.8°C 65.3°F18.5°C 68% 6.0 mph NW9.7 kmh NW 10.7 mph17.2 kmh 29.85 in1010.8 mb 0.00 in0.0 mm 0.00 in/hr0.0 mm/hr 0.00 in0.0 mm
06:35 PM 76.3°F24.6°C 65.0°F18.3°C 68% 8.3 mph NW13.4 kmh NW 11.4 mph18.3 kmh 29.85 in1010.8 mb 0.00 in0.0 mm 0.00 in/hr0.0 mm/hr 0.00 in0.0 mm
06:40 PM 75.6°F24.2°C 65.1°F18.4°C 70% 7.6 mph NW12.2 kmh NW 13.0 mph20.9 kmh 29.85 in1010.8 mb 0.00 in0.0 mm 0.00 in/hr0.0 mm/hr 0.00 in0.0 mm
06:45 PM 75.0°F23.9°C 65.0°F18.3°C 71% 6.0 mph N9.7 kmh N 13.0 mph20.9 kmh 29.85 in1010.8 mb 0.00 in0.0 mm 0.00 in/hr0.0 mm/hr 0.00 in0.0 mm
06:50 PM 74.5°F23.6°C 64.5°F18.1°C 71% 9.8 mph NNW15.8 kmh NNW 13.6 mph21.9 kmh 29.85 in1010.8 mb 0.00 in0.0 mm 0.00 in/hr0.0 mm/hr 0.00 in0.0 mm
06:55 PM 73.8°F23.2°C 64.6°F18.1°C 73% 4.5 mph NW7.2 kmh NW 13.6 mph21.9 kmh 29.85 in1010.8 mb 0.00 in0.0 mm 0.00 in/hr0.0 mm/hr 0.00 in0.0 mm
07:00 PM 73.4°F23.0°C 64.6°F18.1°C 74% 6.0 mph NW9.7 kmh NW 13.6 mph21.9 kmh 29.85 in1010.8 mb 0.00 in0.0 mm 0.00 in/hr0.0 mm/hr 0.00 in0.0 mm
07:05 PM 73.0°F22.8°C 64.3°F17.9°C 74% 4.5 mph NNW7.2 kmh NNW 13.0 mph20.9 kmh 29.86 in1011.2 mb 0.00 in0.0 mm 0.00 in/hr0.0 mm/hr 0.00 in0.0 mm
07:10 PM 72.9°F22.7°C 64.5°F18.1°C 75% 6.0 mph NNW9.7 kmh NNW 9.8 mph15.8 kmh 29.85 in1010.8 mb 0.00 in0.0 mm 0.00 in/hr0.0 mm/hr 0.00 in0.0 mm
07:15 PM 72.5°F22.5°C 64.5°F18.1°C 76% 4.5 mph NW7.2 kmh NW 9.8 mph15.8 kmh 29.86 in1011.2 mb 0.00 in0.0 mm 0.00 in/hr0.0 mm/hr 0.00 in0.0 mm
07:20 PM 72.3°F22.4°C 64.4°F18.0°C 76% 4.5 mph NW7.2 kmh NW 9.8 mph15.8 kmh 29.86 in1011.2 mb 0.00 in0.0 mm 0.00 in/hr0.0 mm/hr 0.00 in0.0 mm
07:25 PM 72.1°F22.3°C 64.6°F18.1°C 77% 5.4 mph NNW8.7 kmh NNW 10.7 mph17.2 kmh 29.86 in1011.2 mb 0.00 in0.0 mm 0.00 in/hr0.0 mm/hr 0.00 in0.0 mm
07:30 PM 72.0°F22.2°C 64.8°F18.2°C 78% 4.5 mph NNW7.2 kmh NNW 10.7 mph17.2 kmh 29.86 in1011.2 mb 0.00 in0.0 mm 0.00 in/hr0.0 mm/hr 0.00 in0.0 mm
07:35 PM 72.0°F22.2°C 64.8°F18.2°C 78% 5.4 mph NNW8.7 kmh NNW 10.7 mph17.2 kmh 29.86 in1011.2 mb 0.00 in0.0 mm 0.00 in/hr0.0 mm/hr 0.00 in0.0 mm
07:40 PM 71.8°F22.1°C 64.9°F18.3°C 79% 7.6 mph NW12.2 kmh NW 11.4 mph18.3 kmh 29.87 in1011.5 mb 0.00 in0.0 mm 0.00 in/hr0.0 mm/hr 0.00 in0.0 mm
07:45 PM 71.6°F22.0°C 64.8°F18.2°C 79% 5.4 mph NNW8.7 kmh NNW 11.4 mph18.3 kmh 29.86 in1011.2 mb 0.00 in0.0 mm 0.00 in/hr0.0 mm/hr 0.00 in0.0 mm
07:50 PM 71.6°F22.0°C 64.8°F18.2°C 79% 7.6 mph NNW12.2 kmh NNW 14.5 mph23.3 kmh 29.86 in1011.2 mb 0.00 in0.0 mm 0.00 in/hr0.0 mm/hr 0.00 in0.0 mm
07:55 PM 71.6°F22.0°C 65.1°F18.4°C 80% 7.6 mph N12.2 kmh N 14.5 mph23.3 kmh 29.87 in1011.5 mb 0.00 in0.0 mm 0.00 in/hr0.0 mm/hr 0.00 in0.0 mm
08:00 PM 71.4°F21.9°C 65.3°F18.5°C 81% 7.6 mph N12.2 kmh N 13.6 mph21.9 kmh 29.87 in1011.5 mb 0.00 in0.0 mm 0.00 in/hr0.0 mm/hr 0.00 in0.0 mm
08:05 PM 71.4°F21.9°C 65.3°F18.5°C 81% 6.0 mph N9.7 kmh N 13.0 mph20.9 kmh 29.87 in1011.5 mb 0.00 in0.0 mm 0.00 in/hr0.0 mm/hr 0.00 in0.0 mm
08:10 PM 71.2°F21.8°C 65.5°F18.6°C 82% 6.0 mph N9.7 kmh N 12.1 mph19.5 kmh 29.86 in1011.2 mb 0.00 in0.0 mm 0.00 in/hr0.0 mm/hr 0.00 in0.0 mm
08:15 PM 71.2°F21.8°C 65.8°F18.8°C 83% 5.4 mph NNW8.7 kmh NNW 11.4 mph18.3 kmh 29.87 in1011.5 mb 0.00 in0.0 mm 0.00 in/hr0.0 mm/hr 0.00 in0.0 mm
08:20 PM 71.2°F21.8°C 66.2°F19.0°C 84% 7.6 mph N12.2 kmh N 12.1 mph19.5 kmh 29.87 in1011.5 mb 0.00 in0.0 mm 0.00 in/hr0.0 mm/hr 0.00 in0.0 mm
08:25 PM 71.1°F21.7°C 66.0°F18.9°C 84% 5.4 mph N8.7 kmh N 12.1 mph19.5 kmh 29.88 in1011.9 mb 0.00 in0.0 mm 0.00 in/hr0.0 mm/hr 0.00 in0.0 mm
08:30 PM 71.1°F21.7°C 66.4°F19.1°C 85% 5.4 mph N8.7 kmh N 13.0 mph20.9 kmh 29.88 in1011.9 mb 0.00 in0.0 mm 0.00 in/hr0.0 mm/hr 0.00 in0.0 mm
08:35 PM 71.1°F21.7°C 66.4°F19.1°C 85% 6.0 mph N9.7 kmh N 13.0 mph20.9 kmh 29.88 in1011.9 mb 0.00 in0.0 mm 0.00 in/hr0.0 mm/hr 0.00 in0.0 mm
08:40 PM 70.9°F21.6°C 66.5°F19.2°C 86% 6.9 mph N11.1 kmh N 13.0 mph20.9 kmh 29.88 in1011.9 mb 0.00 in0.0 mm 0.00 in/hr0.0 mm/hr 0.00 in0.0 mm
08:45 PM 70.9°F21.6°C 66.9°F19.4°C 87% 5.4 mph N8.7 kmh N 10.7 mph17.2 kmh 29.88 in1011.9 mb 0.00 in0.0 mm 0.00 in/hr0.0 mm/hr 0.00 in0.0 mm
08:50 PM 70.7°F21.5°C 67.0°F19.4°C 88% 5.4 mph N8.7 kmh N 10.7 mph17.2 kmh 29.89 in1012.2 mb 0.00 in0.0 mm 0.00 in/hr0.0 mm/hr 0.00 in0.0 mm
08:55 PM 70.7°F21.5°C 67.0°F19.4°C 88% 6.9 mph N11.1 kmh N 11.4 mph18.3 kmh 29.89 in1012.2 mb 0.00 in0.0 mm 0.00 in/hr0.0 mm/hr 0.00 in0.0 mm
09:00 PM 70.7°F21.5°C 67.0°F19.4°C 88% 7.6 mph N12.2 kmh N 12.1 mph19.5 kmh 29.89 in1012.2 mb 0.00 in0.0 mm 0.00 in/hr0.0 mm/hr 0.00 in0.0 mm
09:05 PM 70.7°F21.5°C 67.0°F19.4°C 88% 8.3 mph N13.4 kmh N 12.1 mph19.5 kmh 29.90 in1012.5 mb 0.00 in0.0 mm 0.00 in/hr0.0 mm/hr 0.00 in0.0 mm
09:10 PM 70.7°F21.5°C 67.0°F19.4°C 88% 7.6 mph N12.2 kmh N 12.1 mph19.5 kmh 29.90 in1012.5 mb 0.00 in0.0 mm 0.00 in/hr0.0 mm/hr 0.00 in0.0 mm
09:15 PM 70.7°F21.5°C 67.3°F19.6°C 89% 6.9 mph N11.1 kmh N 11.4 mph18.3 kmh 29.90 in1012.5 mb 0.00 in0.0 mm 0.00 in/hr0.0 mm/hr 0.00 in0.0 mm
09:20 PM 70.7°F21.5°C 67.7°F19.8°C 90% 6.9 mph N11.1 kmh N 11.4 mph18.3 kmh 29.91 in1012.9 mb 0.00 in0.0 mm 0.00 in/hr0.0 mm/hr 0.00 in0.0 mm
09:25 PM 70.7°F21.5°C 67.7°F19.8°C 90% 6.9 mph N11.1 kmh N 10.7 mph17.2 kmh 29.91 in1012.9 mb 0.00 in0.0 mm 0.00 in/hr0.0 mm/hr 0.00 in0.0 mm
09:30 PM 70.7°F21.5°C 67.7°F19.8°C 90% 8.3 mph NNW13.4 kmh NNW 13.0 mph20.9 kmh 29.91 in1012.9 mb 0.00 in0.0 mm 0.00 in/hr0.0 mm/hr 0.00 in0.0 mm
09:35 PM 70.7°F21.5°C 67.7°F19.8°C 90% 9.2 mph N14.8 kmh N 13.0 mph20.9 kmh 29.91 in1012.9 mb 0.00 in0.0 mm 0.00 in/hr0.0 mm/hr 0.00 in0.0 mm
09:40 PM 70.5°F21.4°C 67.8°F19.9°C 91% 8.3 mph N13.4 kmh N 13.0 mph20.9 kmh 29.91 in1012.9 mb 0.00 in0.0 mm 0.00 in/hr0.0 mm/hr 0.00 in0.0 mm
09:45 PM 70.5°F21.4°C 67.8°F19.9°C 91% 8.3 mph N13.4 kmh N 13.0 mph20.9 kmh 29.91 in1012.9 mb 0.00 in0.0 mm 0.00 in/hr0.0 mm/hr 0.00 in0.0 mm
09:50 PM 70.5°F21.4°C 67.8°F19.9°C 91% 7.6 mph N12.2 kmh N 12.1 mph19.5 kmh 29.92 in1013.2 mb 0.00 in0.0 mm 0.00 in/hr0.0 mm/hr 0.00 in0.0 mm
09:55 PM 70.5°F21.4°C 67.8°F19.9°C 91% 7.6 mph N12.2 kmh N 12.1 mph19.5 kmh 29.91 in1012.9 mb 0.00 in0.0 mm 0.00 in/hr0.0 mm/hr 0.00 in0.0 mm
10:00 PM 70.5°F21.4°C 67.5°F19.7°C 90% 9.2 mph N14.8 kmh N 14.5 mph23.3 kmh 29.91 in1012.9 mb 0.00 in0.0 mm 0.00 in/hr0.0 mm/hr 0.00 in0.0 mm
10:05 PM 70.5°F21.4°C 67.2°F19.6°C 89% 9.2 mph N14.8 kmh N 14.5 mph23.3 kmh 29.92 in1013.2 mb 0.00 in0.0 mm 0.00 in/hr0.0 mm/hr 0.00 in0.0 mm
10:10 PM 70.3°F21.3°C 67.0°F19.4°C 89% 7.6 mph N12.2 kmh N 15.9 mph25.6 kmh 29.92 in1013.2 mb 0.00 in0.0 mm 0.00 in/hr0.0 mm/hr 0.00 in0.0 mm
10:15 PM 70.2°F21.2°C 67.1°F19.5°C 90% 8.3 mph N13.4 kmh N 15.9 mph25.6 kmh 29.92 in1013.2 mb 0.00 in0.0 mm 0.00 in/hr0.0 mm/hr 0.00 in0.0 mm
10:20 PM 70.2°F21.2°C 67.1°F19.5°C 90% 9.8 mph N15.8 kmh N 15.2 mph24.5 kmh 29.93 in1013.5 mb 0.00 in0.0 mm 0.00 in/hr0.0 mm/hr 0.00 in0.0 mm
10:25 PM 70.0°F21.1°C 66.6°F19.2°C 89% 9.8 mph N15.8 kmh N 17.4 mph28.0 kmh 29.93 in1013.5 mb 0.00 in0.0 mm 0.00 in/hr0.0 mm/hr 0.00 in0.0 mm
10:30 PM 70.0°F21.1°C 66.9°F19.4°C 90% 9.8 mph N15.8 kmh N 17.4 mph28.0 kmh 29.93 in1013.5 mb 0.00 in0.0 mm 0.00 in/hr0.0 mm/hr 0.00 in0.0 mm
10:35 PM 69.8°F21.0°C 66.8°F19.3°C 90% 9.8 mph N15.8 kmh N 14.5 mph23.3 kmh 29.93 in1013.5 mb 0.00 in0.0 mm 0.00 in/hr0.0 mm/hr 0.00 in0.0 mm
10:40 PM 69.8°F21.0°C 66.4°F19.1°C 89% 6.9 mph N11.1 kmh N 13.6 mph21.9 kmh 29.93 in1013.5 mb 0.00 in0.0 mm 0.00 in/hr0.0 mm/hr 0.00 in0.0 mm
10:45 PM 69.8°F21.0°C 66.4°F19.1°C 89% 6.0 mph N9.7 kmh N 15.9 mph25.6 kmh 29.93 in1013.5 mb 0.00 in0.0 mm 0.00 in/hr0.0 mm/hr 0.00 in0.0 mm
10:50 PM 69.6°F20.9°C 66.3°F19.1°C 89% 6.9 mph N11.1 kmh N 15.9 mph25.6 kmh 29.93 in1013.5 mb 0.00 in0.0 mm 0.00 in/hr0.0 mm/hr 0.00 in0.0 mm
10:55 PM 69.6°F20.9°C 65.9°F18.8°C 88% 7.6 mph N12.2 kmh N 12.1 mph19.5 kmh 29.94 in1013.9 mb 0.00 in0.0 mm 0.00 in/hr0.0 mm/hr 0.00 in0.0 mm
11:00 PM 69.6°F20.9°C 65.6°F18.7°C 87% 6.0 mph N9.7 kmh N 11.4 mph18.3 kmh 29.93 in1013.5 mb 0.00 in0.0 mm 0.00 in/hr0.0 mm/hr 0.00 in0.0 mm
11:05 PM 69.3°F20.7°C 64.9°F18.3°C 86% 9.2 mph NNE14.8 kmh NNE 12.1 mph19.5 kmh 29.94 in1013.9 mb 0.00 in0.0 mm 0.00 in/hr0.0 mm/hr 0.00 in0.0 mm
11:10 PM 69.3°F20.7°C 64.9°F18.3°C 86% 9.2 mph NE14.8 kmh NE 12.1 mph19.5 kmh 29.94 in1013.9 mb 0.00 in0.0 mm 0.00 in/hr0.0 mm/hr 0.00 in0.0 mm
11:15 PM 69.3°F20.7°C 64.9°F18.3°C 86% 4.5 mph NE7.2 kmh NE 12.1 mph19.5 kmh 29.93 in1013.5 mb 0.00 in0.0 mm 0.00 in/hr0.0 mm/hr 0.00 in0.0 mm
11:20 PM 69.1°F20.6°C 64.7°F18.2°C 86% 4.5 mph N7.2 kmh N 12.1 mph19.5 kmh 29.93 in1013.5 mb 0.00 in0.0 mm 0.00 in/hr0.0 mm/hr 0.00 in0.0 mm
11:25 PM 68.9°F20.5°C 64.6°F18.1°C 86% 4.5 mph NNE7.2 kmh NNE 8.3 mph13.4 kmh 29.94 in1013.9 mb 0.00 in0.0 mm 0.00 in/hr0.0 mm/hr 0.00 in0.0 mm
11:30 PM 68.9°F20.5°C 64.6°F18.1°C 86% 4.5 mph NNE7.2 kmh NNE 8.3 mph13.4 kmh 29.94 in1013.9 mb 0.00 in0.0 mm 0.00 in/hr0.0 mm/hr 0.00 in0.0 mm
11:35 PM 68.7°F20.4°C 64.7°F18.2°C 87% 3.8 mph N6.1 kmh N 8.3 mph13.4 kmh 29.94 in1013.9 mb 0.00 in0.0 mm 0.00 in/hr0.0 mm/hr 0.00 in0.0 mm
11:40 PM 68.5°F20.3°C 64.5°F18.1°C 87% 3.1 mph N5.0 kmh N 9.2 mph14.8 kmh 29.94 in1013.9 mb 0.00 in0.0 mm 0.00 in/hr0.0 mm/hr 0.00 in0.0 mm
11:45 PM 68.4°F20.2°C 64.4°F18.0°C 87% 1.6 mph N2.6 kmh N 9.2 mph14.8 kmh 29.93 in1013.5 mb 0.00 in0.0 mm 0.00 in/hr0.0 mm/hr 0.00 in0.0 mm
11:50 PM 68.4°F20.2°C 64.4°F18.0°C 87% 4.5 mph N7.2 kmh N 9.2 mph14.8 kmh 29.94 in1013.9 mb 0.00 in0.0 mm 0.00 in/hr0.0 mm/hr 0.00 in0.0 mm
11:55 PM 68.2°F20.1°C 64.2°F17.9°C 87% 3.8 mph N6.1 kmh N 9.8 mph15.8 kmh 29.94 in1013.9 mb 0.00 in0.0 mm 0.00 in/hr0.0 mm/hr 0.00 in0.0 mm